| time (UTC) | temp F | wind direction | speed MPH | gust MPH | rain 1hr in | rain 24hr in | rain mn in | humidity % | barometer mb |
| 20260510214142 | 66 | 9 | 2.0 | 3.0 | 0.00 | 0.00 | 0.00 | 80 | 1004.3 |
| 20260510212638 | 65 | 310 | 2.0 | 2.0 | 0.00 | 0.00 | 0.00 | 81 | 1004.4 |
| 20260510211138 | 64 | 56 | 0.0 | 1.0 | 0.00 | 0.00 | 0.00 | 81 | 1004.1 |
| 20260510205635 | 64 | 4 | 1.0 | 2.0 | 0.00 | 0.00 | 0.00 | 81 | 1004.1 |
| 20260510204130 | 65 | 51 | 0.0 | 1.0 | 0.00 | 0.00 | 0.00 | 81 | 1004.1 |
| 20260510202630 | 64 | 97 | 1.0 | 2.0 | 0.00 | 0.00 | 0.00 | 80 | 1004.0 |
| 20260510201126 | 64 | 105 | 2.0 | 2.0 | 0.00 | 0.00 | 0.00 | 81 | 1003.9 |
| 20260510195623 | 62 | 87 | 1.0 | 1.0 | 0.00 | 0.00 | 0.00 | 85 | 1004.1 |
| 20260510194122 | 62 | 39 | 0.0 | 1.0 | 0.00 | 0.00 | 0.00 | 86 | 1004.1 |
| 20260510192619 | 62 | 116 | 1.0 | 2.0 | 0.00 | 0.00 | 0.00 | 86 | 1004.2 |
| 20260510191119 | 62 | 130 | 2.0 | 2.0 | 0.00 | 0.00 | 0.00 | 85 | 1004.3 |
| 20260510185616 | 64 | 76 | 1.0 | 1.0 | 0.00 | 0.00 | 0.00 | 83 | 1004.5 |
| 20260510184113 | 64 | 65 | 0.0 | 1.0 | 0.00 | 0.00 | 0.00 | 81 | 1004.6 |
| 20260510182612 | 65 | 129 | 2.0 | 2.0 | 0.00 | 0.00 | 0.00 | 79 | 1004.0 |
| 20260510181107 | 66 | 36 | 1.0 | 2.0 | 0.00 | 0.00 | 0.00 | 77 | 1004.4 |
| 20260510175602 | 65 | 210 | 3.0 | 3.0 | 0.00 | 0.00 | 0.00 | 80 | 1004.5 |
| 20260510174059 | 63 | 89 | 1.0 | 2.0 | 0.00 | 0.00 | 0.00 | 83 | 1004.4 |
| 20260510172559 | 62 | 41 | 2.0 | 2.0 | 0.00 | 0.00 | 0.00 | 85 | 1004.5 |
| 20260510171056 | 62 | 92 | 2.0 | 2.0 | 0.00 | 0.00 | 0.00 | 86 | 1004.3 |
| 20260510165550 | 61 | 97 | 1.0 | 1.0 | 0.00 | 0.00 | 0.00 | 87 | 1004.5 |
| 20260510164046 | 62 | 136 | 2.0 | 2.0 | 0.00 | 0.00 | 0.00 | 85 | 1004.6 |
| 20260510162544 | 61 | 82 | 1.0 | 1.0 | 0.00 | 0.00 | 0.00 | 86 | 1004.9 |
| 20260510161040 | 60 | 235 | 1.0 | 2.0 | 0.00 | 0.00 | 0.00 | 88 | 1004.8 |
| 20260510155539 | 59 | 170 | 4.0 | 5.0 | 0.00 | 0.00 | 0.00 | 91 | 1004.6 |
| 20260510154038 | 57 | 15 | 3.0 | 5.0 | 0.00 | 0.00 | 0.00 | 95 | 1005.1 |
| 20260510152533 | 56 | 36 | 1.0 | 1.0 | 0.00 | 0.00 | 0.00 | 99 | 1005.2 |
| 20260510151030 | 55 | 66 | 0.0 | 0.0 | 0.00 | 0.00 | 0.00 | 99 | 1005.2 |
| 20260510145529 | 54 | 42 | 0.0 | 1.0 | 0.00 | 0.00 | 0.00 | 99 | 1005.1 |
| 20260510144024 | 53 | 42 | 0.0 | 1.0 | 0.00 | 0.00 | 0.00 | 99 | 1005.1 |
| 20260510142524 | 52 | 67 | 0.0 | 0.0 | 0.00 | 0.00 | 0.00 | 99 | 1004.9 |
| 20260510141021 | 53 | 68 | 0.0 | 0.0 | 0.00 | 0.00 | 0.00 | 99 | 1004.9 |
| 20260510135518 | 53 | 71 | 0.0 | 0.0 | 0.00 | 0.00 | 0.00 | 99 | 1004.8 |
| 20260510134015 | 53 | 66 | 0.0 | 1.0 | 0.00 | 0.00 | 0.00 | 99 | 1004.7 |
| 20260510132515 | 54 | 70 | 0.0 | 0.0 | 0.00 | 0.00 | 0.00 | 99 | 1004.7 |
| 20260510131012 | 54 | 64 | 0.0 | 0.0 | 0.00 | 0.00 | 0.00 | 99 | 1004.6 |
| 20260510125507 | 53 | 65 | 0.0 | 0.0 | 0.00 | 0.00 | 0.00 | 99 | 1004.5 |
| 20260510124003 | 53 | 54 | 0.0 | 0.0 | 0.00 | 0.00 | 0.00 | 99 | 1004.3 |
| 20260510122502 | 52 | 69 | 0.0 | 0.0 | 0.00 | 0.00 | 0.00 | 99 | 1004.3 |
| 20260510120958 | 52 | 64 | 0.0 | 0.0 | 0.00 | 0.00 | 0.00 | 99 | 1003.7 |
| 20260510115454 | 52 | 65 | 0.0 | 0.0 | 0.00 | 0.00 | 0.00 | 99 | 1003.7 |
| 20260510113954 | 52 | 80 | 0.0 | 1.0 | 0.00 | 0.00 | 0.00 | 99 | 1003.6 |
| 20260510112450 | 51 | 71 | 0.0 | 0.0 | 0.00 | 0.00 | 0.00 | 99 | 1003.5 |
| 20260510110950 | 51 | 72 | 0.0 | 0.0 | 0.00 | 0.00 | 0.00 | 99 | 1003.9 |
| 20260510105450 | 51 | 72 | 0.0 | 0.0 | 0.00 | 0.00 | 0.00 | 99 | 1003.5 |
| 20260510103945 | 51 | 75 | 0.0 | 0.0 | 0.00 | 0.00 | 0.00 | 99 | 1003.7 |
| 20260510102445 | 50 | 70 | 0.0 | 0.0 | 0.00 | 0.00 | 0.00 | 99 | 1003.4 |
| 20260510100944 | 50 | 71 | 0.0 | 0.0 | 0.00 | 0.00 | 0.00 | 99 | 1003.9 |
| 20260510095444 | 51 | 76 | 0.0 | 0.0 | 0.00 | 0.00 | 0.00 | 99 | 1003.5 |
| 20260510093940 | 51 | 56 | 0.0 | 0.0 | 0.00 | 0.00 | 0.00 | 99 | 1003.7 |
| 20260510092436 | 51 | 51 | 0.0 | 0.0 | 0.00 | 0.00 | 0.00 | 99 | 1003.5 |
| 20260510090936 | 51 | 65 | 0.0 | 0.0 | 0.00 | 0.00 | 0.00 | 99 | 1003.6 |
| 20260510085435 | 51 | 52 | 0.0 | 0.0 | 0.00 | 0.00 | 0.00 | 99 | 1004.1 |
| 20260510083930 | 51 | 51 | 0.0 | 0.0 | 0.00 | 0.00 | 0.00 | 99 | 1003.7 |
| 20260510082426 | 51 | 41 | 1.0 | 2.0 | 0.00 | 0.00 | 0.00 | 99 | 1003.7 |
| 20260510080923 | 51 | 68 | 0.0 | 0.0 | 0.00 | 0.00 | 0.00 | 99 | 1003.0 |
| 20260510075424 | 51 | 68 | 0.0 | 0.0 | 0.00 | 0.00 | 0.00 | 99 | 1002.6 |
| 20260510073919 | 51 | 68 | 0.0 | 0.0 | 0.00 | 0.00 | 0.00 | 99 | 1003.0 |
| 20260510072414 | 51 | 68 | 0.0 | 0.0 | 0.00 | 0.00 | 0.00 | 99 | 1003.1 |
| 20260510070910 | 51 | 68 | 0.0 | 0.0 | 0.00 | 0.00 | 0.00 | 99 | 1003.0 |
| 20260510065410 | 51 | 69 | 0.0 | 0.0 | 0.00 | 0.00 | 0.00 | 99 | 1002.9 |
| 20260510063906 | 51 | 70 | 0.0 | 0.0 | 0.00 | 0.00 | 0.00 | 99 | 1003.0 |
| 20260510062401 | 51 | 71 | 0.0 | 0.0 | 0.00 | 0.00 | 0.00 | 99 | 1002.7 |
| 20260510060902 | 52 | 68 | 0.0 | 0.0 | 0.00 | 0.00 | 0.00 | 99 | 1002.7 |
| 20260510055401 | 52 | 71 | 0.0 | 0.0 | 0.00 | 0.00 | 0.00 | 99 | 1002.6 |
| 20260510053856 | 52 | 62 | 0.0 | 0.0 | 0.00 | 0.00 | 0.00 | 99 | 1002.9 |
| 20260510052356 | 52 | 63 | 0.0 | 0.0 | 0.00 | 0.00 | 0.00 | 99 | 1002.9 |
| 20260510050852 | 52 | 64 | 0.0 | 0.0 | 0.00 | 0.00 | 0.00 | 99 | 1002.7 |
| 20260510045348 | 52 | 67 | 0.0 | 0.0 | 0.00 | 0.00 | 0.00 | 99 | 1003.1 |
| 20260510043844 | 52 | 67 | 0.0 | 0.0 | 0.00 | 0.00 | 0.00 | 99 | 1003.0 |
| 20260510042340 | 52 | 74 | 0.0 | 0.0 | 0.00 | 0.00 | 0.00 | 99 | 1002.7 |
| 20260510040837 | 52 | 83 | 0.0 | 0.0 | 0.00 | 0.00 | 0.00 | 99 | 1002.9 |
| 20260510035337 | 52 | 83 | 0.0 | 0.0 | 0.00 | 0.47 | 0.47 | 99 | 1002.4 |
| 20260510033833 | 52 | 83 | 0.0 | 0.0 | 0.00 | 0.47 | 0.47 | 99 | 1002.5 |
| 20260510032329 | 52 | 83 | 0.0 | 0.0 | 0.00 | 0.47 | 0.47 | 99 | 1002.4 |
| 20260510030826 | 52 | 83 | 0.0 | 0.0 | 0.00 | 0.47 | 0.47 | 99 | 1002.5 |
| 20260510025323 | 52 | 84 | 0.0 | 0.0 | 0.00 | 0.47 | 0.47 | 99 | 1002.7 |
| 20260510023819 | 52 | 71 | 0.0 | 0.0 | 0.00 | 0.47 | 0.47 | 99 | 1002.7 |
| 20260510022317 | 53 | 76 | 0.0 | 0.0 | 0.00 | 0.47 | 0.47 | 99 | 1002.9 |
| 20260510020816 | 53 | 68 | 0.0 | 0.0 | 0.00 | 0.47 | 0.47 | 99 | 1002.4 |
| 20260510015315 | 53 | 68 | 0.0 | 0.0 | 0.00 | 0.47 | 0.47 | 99 | 1002.7 |
| 20260510013815 | 53 | 68 | 0.0 | 0.0 | 0.00 | 0.47 | 0.47 | 99 | 1002.6 |
| 20260510012312 | 53 | 65 | 0.0 | 0.0 | 0.00 | 0.47 | 0.47 | 99 | 1002.3 |
| 20260510010811 | 52 | 75 | 0.0 | 0.0 | 0.00 | 0.47 | 0.47 | 99 | 1002.3 |
| 20260510005307 | 53 | 81 | 0.0 | 0.0 | 0.00 | 0.47 | 0.47 | 99 | 1002.3 |
| 20260510003805 | 53 | 66 | 0.0 | 0.0 | 0.00 | 0.47 | 0.47 | 99 | 1002.2 |
| 20260510002306 | 53 | 55 | 0.0 | 0.0 | 0.00 | 0.47 | 0.47 | 99 | 1002.1 |
| 20260510000800 | 53 | 48 | 0.0 | 0.0 | 0.00 | 0.47 | 0.47 | 99 | 1002.0 |
| 20260509235257 | 53 | 66 | 0.0 | 0.0 | 0.00 | 0.47 | 0.47 | 99 | 1002.0 |
| 20260509233754 | 53 | 65 | 0.0 | 0.0 | 0.00 | 0.47 | 0.47 | 99 | 1001.9 |
| 20260509232251 | 53 | 66 | 0.0 | 0.0 | 0.00 | 0.46 | 0.46 | 99 | 1002.0 |
| 20260509230747 | 54 | 71 | 0.0 | 0.0 | 0.12 | 0.46 | 0.46 | 99 | 1002.0 |
| 20260509225247 | 54 | 71 | 0.0 | 0.0 | 0.28 | 0.41 | 0.41 | 99 | 1002.4 |
| 20260509223743 | 54 | 59 | 0.0 | 0.0 | 0.31 | 0.32 | 0.32 | 99 | 1002.8 |
| 20260509222238 | 55 | 65 | 0.0 | 0.0 | 0.17 | 0.24 | 0.24 | 99 | 1003.1 |
| 20260509220738 | 55 | 59 | 0.0 | 0.0 | 0.12 | 0.20 | 0.20 | 99 | 1002.6 |
| 20260509215233 | 55 | 58 | 0.0 | 0.0 | 0.42 | 0.17 | 0.17 | 99 | 1003.1 |